createdAt,value
2017-02-06T00:00:46.135Z,5.49
2017-02-06T00:02:58.539Z,5.5
2017-02-06T00:05:09.182Z,5.52
2017-02-06T00:07:21.888Z,5.54
2017-02-06T00:09:34.084Z,5.55
2017-02-06T00:11:47.053Z,5.57
2017-02-06T00:14:03.025Z,5.59
2017-02-06T00:16:13.265Z,5.61
2017-02-06T00:18:29.706Z,5.62
2017-02-06T00:20:42.081Z,5.64
2017-02-06T00:22:54.478Z,5.65
2017-02-06T00:25:06.784Z,5.66
2017-02-06T00:27:18.959Z,5.65
2017-02-06T00:29:31.190Z,5.64
2017-02-06T00:31:43.476Z,5.63
2017-02-06T00:33:55.836Z,5.6
2017-02-06T00:36:08.221Z,5.59
2017-02-06T00:38:20.640Z,5.58
2017-02-06T00:40:32.977Z,5.58
2017-02-06T00:42:45.492Z,5.57
2017-02-06T00:44:58.050Z,5.58
2017-02-06T00:47:10.407Z,5.59
2017-02-06T00:49:22.691Z,5.6
2017-02-06T00:51:34.953Z,5.6
2017-02-06T00:53:47.324Z,5.59
2017-02-06T00:55:59.599Z,5.57
2017-02-06T00:58:11.794Z,5.57
2017-02-06T01:00:24.183Z,5.57
2017-02-06T01:02:36.402Z,5.57
2017-02-06T01:04:48.646Z,5.58
2017-02-06T01:07:00.866Z,5.59
2017-02-06T01:09:13.225Z,5.59
2017-02-06T01:11:25.541Z,5.58
2017-02-06T01:13:38.067Z,5.58
2017-02-06T01:15:50.496Z,5.57
2017-02-06T01:18:03.146Z,5.57
2017-02-06T01:20:15.474Z,5.57
2017-02-06T01:22:27.910Z,5.57
2017-02-06T01:24:40.112Z,5.56
2017-02-06T01:26:52.378Z,5.56
2017-02-06T01:29:04.672Z,5.55
2017-02-06T01:31:16.891Z,5.54
2017-02-06T01:33:29.105Z,5.54
2017-02-06T01:35:41.338Z,5.54
2017-02-06T01:37:53.516Z,5.53
2017-02-06T01:40:05.738Z,5.51
2017-02-06T01:42:12.974Z,5.5
2017-02-06T01:44:25.226Z,5.5
2017-02-06T01:46:37.456Z,5.5
2017-02-06T01:48:49.813Z,5.49
2017-02-06T01:51:02.537Z,5.48
2017-02-06T01:53:15.143Z,5.46
2017-02-06T01:55:27.417Z,5.46
2017-02-06T01:57:39.647Z,5.46
2017-02-06T01:59:51.964Z,5.45
2017-02-06T02:02:04.351Z,5.43
2017-02-06T02:04:16.547Z,5.41
2017-02-06T02:06:28.855Z,5.39
2017-02-06T02:08:41.136Z,5.37
2017-02-06T02:10:53.292Z,5.35
2017-02-06T02:13:05.577Z,5.33
2017-02-06T02:15:17.720Z,5.31
2017-02-06T02:17:29.840Z,5.29
2017-02-06T02:19:37.283Z,5.28
2017-02-06T02:21:44.580Z,5.27
2017-02-06T02:23:56.871Z,5.26
2017-02-06T02:26:09.626Z,5.23
2017-02-06T02:28:22.225Z,5.23
2017-02-06T02:30:34.425Z,5.21
2017-02-06T02:32:46.642Z,5.21
2017-02-06T02:34:53.853Z,5.2
2017-02-06T02:37:06.167Z,5.17
2017-02-06T02:39:13.423Z,5.15
2017-02-06T02:41:25.793Z,5.11
2017-02-06T02:43:33.121Z,5.08
2017-02-06T02:45:45.493Z,5.06
2017-02-06T02:47:57.854Z,5.03
2017-02-06T02:50:09.986Z,5
2017-02-06T02:52:22.252Z,4.98
2017-02-06T02:54:34.423Z,4.97
2017-02-06T02:56:46.711Z,4.97
2017-02-06T02:58:59.203Z,4.96
2017-02-06T03:01:11.834Z,4.97
2017-02-06T03:03:24.345Z,4.98
2017-02-06T03:05:36.783Z,4.97
2017-02-06T03:07:49.150Z,4.97
2017-02-06T03:09:56.348Z,4.96
2017-02-06T03:12:08.725Z,4.97
2017-02-06T03:14:20.934Z,4.97
2017-02-06T03:16:33.139Z,4.97
2017-02-06T03:18:45.362Z,4.96
2017-02-06T03:20:57.738Z,4.93
2017-02-06T03:23:10.121Z,4.89
2017-02-06T03:25:22.320Z,4.87
2017-02-06T03:27:34.477Z,4.85
2017-02-06T03:29:46.838Z,4.84
2017-02-06T03:31:59.007Z,4.84
2017-02-06T03:34:11.411Z,4.83
2017-02-06T03:36:23.922Z,4.84
2017-02-06T03:38:36.668Z,4.86
2017-02-06T03:40:49.042Z,4.85
2017-02-06T03:43:01.347Z,4.84
2017-02-06T03:45:13.517Z,4.83
2017-02-06T03:47:20.881Z,4.81
2017-02-06T03:49:33.221Z,4.78
2017-02-06T03:51:45.545Z,4.76
2017-02-06T03:53:57.716Z,4.72
2017-02-06T03:56:09.972Z,4.7
2017-02-06T03:58:22.415Z,4.67
2017-02-06T04:00:34.620Z,4.65
2017-02-06T04:02:46.790Z,4.63
2017-02-06T04:04:59.252Z,4.62
2017-02-06T04:09:22.184Z,4.61
2017-02-06T04:11:34.661Z,4.59
2017-02-06T04:13:47.318Z,4.58
2017-02-06T04:15:59.824Z,4.56
2017-02-06T04:18:12.264Z,4.55
2017-02-06T04:20:24.637Z,4.53
2017-02-06T04:22:36.830Z,4.51
2017-02-06T04:24:49.114Z,4.48
2017-02-06T04:27:01.382Z,4.46
2017-02-06T04:29:08.599Z,4.45
2017-02-06T04:31:20.800Z,4.44
2017-02-06T04:33:33.113Z,4.43
2017-02-06T04:35:45.399Z,4.42
2017-02-06T04:37:57.627Z,4.41
2017-02-06T04:40:04.839Z,4.41
2017-02-06T04:42:17.009Z,4.41
2017-02-06T04:44:29.243Z,4.41
2017-02-06T04:46:41.733Z,4.4
2017-02-06T04:48:54.273Z,4.4
2017-02-06T04:51:06.735Z,4.4
2017-02-06T04:53:19.339Z,4.4
2017-02-06T04:55:29.852Z,4.4
2017-02-06T04:57:42.611Z,4.38
2017-02-06T04:59:55.039Z,4.38
2017-02-06T05:02:07.345Z,4.37
2017-02-06T05:04:19.630Z,4.36
2017-02-06T05:06:31.837Z,4.33
2017-02-06T05:08:44.314Z,4.3
2017-02-06T05:10:56.771Z,4.29
2017-02-06T05:13:09.001Z,4.28
2017-02-06T05:15:21.390Z,4.27
2017-02-06T05:17:33.559Z,4.26
2017-02-06T05:19:46.055Z,4.27
2017-02-06T05:21:58.527Z,4.28
2017-02-06T05:24:11.049Z,4.29
2017-02-06T05:26:23.624Z,4.3
2017-02-06T05:28:35.910Z,4.3
2017-02-06T05:30:43.241Z,4.32
2017-02-06T05:32:55.620Z,4.32
2017-02-06T05:35:07.943Z,4.33
2017-02-06T05:37:20.142Z,4.32
2017-02-06T05:39:32.476Z,4.31
2017-02-06T05:41:39.905Z,4.3
2017-02-06T05:43:52.366Z,4.28
2017-02-06T05:46:04.612Z,4.27
2017-02-06T05:48:16.944Z,4.27
2017-02-06T05:50:29.133Z,4.27
2017-02-06T05:52:41.325Z,4.25
2017-02-06T05:54:53.513Z,4.25
2017-02-06T05:57:00.942Z,4.23
2017-02-06T05:59:13.334Z,4.23
2017-02-06T06:01:26.061Z,4.23
2017-02-06T06:03:38.341Z,4.22
2017-02-06T06:05:50.736Z,4.22
2017-02-06T06:08:03.160Z,4.23
2017-02-06T06:10:15.414Z,4.24
2017-02-06T06:12:22.763Z,4.24
2017-02-06T06:14:35.008Z,4.25
2017-02-06T06:16:47.340Z,4.25
2017-02-06T06:18:59.658Z,4.25
2017-02-06T06:21:11.931Z,4.24
2017-02-06T06:23:24.167Z,4.25
2017-02-06T06:25:36.455Z,4.25
2017-02-06T06:27:48.856Z,4.25
2017-02-06T06:30:01.104Z,4.25
2017-02-06T06:32:13.452Z,4.24
2017-02-06T06:34:25.927Z,4.24
2017-02-06T06:36:33.926Z,4.24
2017-02-06T06:38:46.476Z,4.25
2017-02-06T06:40:58.890Z,4.25
2017-02-06T06:43:11.239Z,4.27
2017-02-06T06:45:23.490Z,4.28
2017-02-06T06:47:35.850Z,4.29
2017-02-06T06:49:48.044Z,4.32
2017-02-06T06:52:00.341Z,4.34
2017-02-06T06:54:12.665Z,4.39
2017-02-06T06:56:23.356Z,4.43
2017-02-06T06:58:35.643Z,4.46
2017-02-06T07:00:47.887Z,4.48
2017-02-06T07:03:00.244Z,4.51
2017-02-06T07:05:12.520Z,4.53
2017-02-06T07:07:24.962Z,4.55
2017-02-06T07:09:32.339Z,4.57
2017-02-06T07:11:44.809Z,4.58
2017-02-06T07:13:57.207Z,4.6
2017-02-06T07:16:04.435Z,4.62
2017-02-06T07:18:16.652Z,4.65
2017-02-06T07:20:28.889Z,4.68
2017-02-06T07:22:36.096Z,4.72
2017-02-06T07:24:48.541Z,4.75
2017-02-06T07:27:01.054Z,4.8
2017-02-06T07:29:13.670Z,4.87
2017-02-06T07:31:25.945Z,4.94
2017-02-06T07:33:39.164Z,5.03
2017-02-06T07:35:51.762Z,5.09
2017-02-06T07:38:04.052Z,5.16
2017-02-06T07:40:16.773Z,5.25
2017-02-06T07:42:29.265Z,5.34
2017-02-06T07:44:41.726Z,5.43
2017-02-06T07:46:54.468Z,5.54
2017-02-06T07:49:07.460Z,5.63
2017-02-06T07:51:19.864Z,5.73
2017-02-06T07:53:32.123Z,5.81
2017-02-06T07:55:44.420Z,5.9
2017-02-06T07:57:56.748Z,6.02
2017-02-06T08:00:09.050Z,6.18
2017-02-06T08:02:21.385Z,6.35
2017-02-06T08:04:33.731Z,6.52
2017-02-06T08:06:46.012Z,6.66
2017-02-06T08:08:58.389Z,6.7
2017-02-06T08:11:10.828Z,6.71
2017-02-06T08:13:23.129Z,6.74
2017-02-06T08:15:35.683Z,6.79
2017-02-06T08:17:47.963Z,6.92
2017-02-06T08:20:00.348Z,7.06
2017-02-06T08:22:12.757Z,7.23
2017-02-06T08:24:25.174Z,7.45
2017-02-06T08:26:37.576Z,7.65
2017-02-06T08:28:49.862Z,7.74
2017-02-06T08:31:02.214Z,7.78
2017-02-06T08:33:14.699Z,7.84
2017-02-06T08:35:26.935Z,7.95
2017-02-06T08:37:39.187Z,8.12
2017-02-06T08:39:46.556Z,8.28
2017-02-06T08:41:59.845Z,8.41
2017-02-06T08:44:12.287Z,8.44
2017-02-06T08:46:27.630Z,8.38
2017-02-06T08:48:36.788Z,8.39
2017-02-06T08:50:49.306Z,8.42
2017-02-06T08:53:01.652Z,8.45
2017-02-06T08:55:09.102Z,8.53
2017-02-06T08:57:21.254Z,8.71
2017-02-06T08:59:33.567Z,8.87
2017-02-06T09:01:46.135Z,9
2017-02-06T09:03:58.519Z,9.06
2017-02-06T09:06:10.889Z,9
2017-02-06T09:08:23.462Z,8.78
2017-02-06T09:10:35.835Z,8.53
2017-02-06T09:12:48.027Z,8.35
2017-02-06T09:15:00.411Z,8.21
2017-02-06T09:17:12.684Z,8.16
2017-02-06T09:19:24.962Z,8.16
2017-02-06T09:21:37.232Z,8.31
2017-02-06T09:23:49.394Z,8.39
2017-02-06T09:26:01.659Z,8.54
2017-02-06T09:28:14.018Z,8.68
2017-02-06T09:30:26.280Z,8.74
2017-02-06T09:32:38.790Z,8.82
2017-02-06T09:34:46.095Z,8.9
2017-02-06T09:36:58.559Z,8.91
2017-02-06T09:39:10.856Z,8.89
2017-02-06T09:41:23.143Z,8.9
2017-02-06T09:43:42.789Z,8.91
2017-02-06T09:46:07.520Z,9
2017-02-06T09:48:26.145Z,9.05
2017-02-06T09:50:48.849Z,9.02
2017-02-06T09:53:02.239Z,8.96
2017-02-06T09:55:14.691Z,8.87
2017-02-06T09:57:28.891Z,8.79
2017-02-06T09:59:41.723Z,8.78
2017-02-06T10:01:54.083Z,8.87
2017-02-06T10:04:06.298Z,8.88
2017-02-06T10:06:22.699Z,8.86
2017-02-06T10:08:40.183Z,8.83
2017-02-06T10:10:52.655Z,8.79
2017-02-06T10:13:05.387Z,8.73
2017-02-06T10:15:17.619Z,8.71
2017-02-06T10:17:30.094Z,8.62
2017-02-06T10:19:37.370Z,8.47
2017-02-06T10:21:44.804Z,8.39
2017-02-06T10:23:57.073Z,8.48
2017-02-06T10:26:09.427Z,8.62
2017-02-06T10:28:21.729Z,8.61
2017-02-06T10:30:34.038Z,8.61
2017-02-06T10:32:46.339Z,8.66
2017-02-06T10:34:53.691Z,8.78
2017-02-06T10:37:06.023Z,8.9
2017-02-06T10:39:18.498Z,8.96
2017-02-06T10:41:30.947Z,8.99
2017-02-06T10:43:43.270Z,9.02
2017-02-06T10:45:55.538Z,8.92
2017-02-06T10:48:07.789Z,8.9
2017-02-06T10:50:20.175Z,8.96
2017-02-06T10:52:32.438Z,8.94
2017-02-06T10:54:44.876Z,8.82
2017-02-06T10:56:57.204Z,8.69
2017-02-06T10:59:09.529Z,8.6
2017-02-06T11:01:21.856Z,8.66
2017-02-06T11:03:34.128Z,8.67
2017-02-06T11:05:46.477Z,8.61
2017-02-06T11:07:58.851Z,8.57
2017-02-06T11:10:06.146Z,8.61
2017-02-06T11:12:18.453Z,8.61
2017-02-06T11:14:30.742Z,8.55
2017-02-06T11:16:38.142Z,8.58
2017-02-06T11:18:50.342Z,8.64
2017-02-06T11:21:02.568Z,8.78
2017-02-06T11:23:15.145Z,8.92
2017-02-06T11:25:27.553Z,9.05
2017-02-06T11:27:39.944Z,9.12
2017-02-06T11:29:52.124Z,9.28
2017-02-06T11:32:04.410Z,9.53
2017-02-06T11:34:11.703Z,9.73
2017-02-06T11:36:24.107Z,9.84
2017-02-06T11:38:36.485Z,9.81
2017-02-06T11:40:48.815Z,9.84
2017-02-06T11:42:56.167Z,9.77
2017-02-06T11:45:08.804Z,9.74
2017-02-06T11:47:21.101Z,9.84
2017-02-06T11:49:33.598Z,10.01
2017-02-06T11:51:45.814Z,10.27
2017-02-06T11:53:58.077Z,10.5
2017-02-06T11:56:10.510Z,10.66
2017-02-06T11:58:22.828Z,10.76
2017-02-06T12:00:35.134Z,10.68
2017-02-06T12:02:47.490Z,10.46
2017-02-06T12:04:59.826Z,10.2
2017-02-06T12:07:12.065Z,10.08
2017-02-06T12:09:24.514Z,10.01
2017-02-06T12:11:36.923Z,9.89
2017-02-06T12:13:49.089Z,9.72
2017-02-06T12:16:01.296Z,9.59
2017-02-06T12:18:14.180Z,9.45
2017-02-06T12:20:26.535Z,9.38
2017-02-06T12:22:39.652Z,9.44
2017-02-06T12:24:51.824Z,9.64
2017-02-06T12:27:04.000Z,10.04
2017-02-06T12:29:16.241Z,10.42
2017-02-06T12:31:23.906Z,10.6
2017-02-06T12:33:37.029Z,10.58
2017-02-06T12:35:50.092Z,10.47
2017-02-06T12:38:02.929Z,10.45
2017-02-06T12:40:15.717Z,10.47
2017-02-06T12:42:28.419Z,10.48
2017-02-06T12:44:41.124Z,10.54
2017-02-06T12:46:54.113Z,10.4
2017-02-06T12:49:06.382Z,10.32
2017-02-06T12:51:18.981Z,10.22
2017-02-06T12:53:31.757Z,10.16
2017-02-06T12:55:44.149Z,10.1
2017-02-06T12:57:59.341Z,9.99
2017-02-06T13:00:12.002Z,9.79
2017-02-06T13:02:27.367Z,9.67
2017-02-06T13:04:40.565Z,9.59
2017-02-06T13:06:53.961Z,9.5
2017-02-06T13:09:07.360Z,9.33
2017-02-06T13:11:19.976Z,9.22
2017-02-06T13:13:33.164Z,9.16
2017-02-06T13:15:48.029Z,9.11
2017-02-06T13:18:02.379Z,9.16
2017-02-06T13:20:15.649Z,9.17
2017-02-06T13:22:29.635Z,9.16
2017-02-06T13:24:42.476Z,9.1
2017-02-06T13:26:55.538Z,9.03
2017-02-06T13:29:09.338Z,8.97
2017-02-06T13:31:23.901Z,8.92
2017-02-06T13:33:31.457Z,8.87
2017-02-06T13:35:44.133Z,8.81
2017-02-06T13:37:57.787Z,8.76
2017-02-06T13:40:12.021Z,8.7
2017-02-06T13:42:25.463Z,8.66
2017-02-06T13:44:37.798Z,8.63
2017-02-06T13:46:45.202Z,8.58
2017-02-06T13:48:57.637Z,8.55
2017-02-06T13:51:10.027Z,8.52
2017-02-06T13:53:22.445Z,8.44
2017-02-06T13:55:34.606Z,8.35
2017-02-06T13:57:47.061Z,8.24
2017-02-06T13:59:59.448Z,8.14
2017-02-06T14:02:11.966Z,8.06
2017-02-06T14:04:24.243Z,8
2017-02-06T14:06:36.449Z,7.95
2017-02-06T14:08:48.667Z,7.89
2017-02-06T14:11:01.088Z,7.85
2017-02-06T14:13:13.361Z,7.81
2017-02-06T14:15:25.805Z,7.81
2017-02-06T14:17:38.079Z,7.84
2017-02-06T14:19:50.443Z,7.89
2017-02-06T14:22:02.642Z,7.93
2017-02-06T14:24:14.980Z,7.95
2017-02-06T14:26:27.382Z,7.98
2017-02-06T14:28:39.706Z,8.01
2017-02-06T14:30:52.086Z,8.07
2017-02-06T14:33:04.504Z,8.1
2017-02-06T14:35:16.833Z,8.15
2017-02-06T14:37:29.095Z,8.22
2017-02-06T14:39:41.387Z,8.31
2017-02-06T14:41:49.231Z,8.4
2017-02-06T14:44:01.477Z,8.51
2017-02-06T14:46:13.767Z,8.67
2017-02-06T14:48:26.114Z,8.8
2017-02-06T14:50:38.361Z,8.82
2017-02-06T14:52:50.655Z,8.78
2017-02-06T14:55:03.004Z,8.72
2017-02-06T14:57:10.416Z,8.71
2017-02-06T14:59:22.686Z,8.79
2017-02-06T15:01:35.076Z,8.88
2017-02-06T15:03:47.608Z,8.92
2017-02-06T15:06:00.018Z,8.92
2017-02-06T15:08:12.252Z,8.86
2017-02-06T15:10:24.717Z,8.79
2017-02-06T15:12:37.158Z,8.74
2017-02-06T15:14:44.708Z,8.66
2017-02-06T15:16:56.972Z,8.54
2017-02-06T15:19:09.413Z,8.43
2017-02-06T15:21:21.729Z,8.36
2017-02-06T15:23:33.994Z,8.32
2017-02-06T15:25:46.309Z,8.26
2017-02-06T15:27:58.507Z,8.29
2017-02-06T15:30:11.260Z,8.43
2017-02-06T15:32:23.520Z,8.56
2017-02-06T15:34:35.684Z,8.53
2017-02-06T15:36:48.002Z,8.52
2017-02-06T15:39:03.009Z,8.49
2017-02-06T15:41:15.471Z,8.41
2017-02-06T15:43:27.801Z,8.34
2017-02-06T15:45:40.150Z,8.26
2017-02-06T15:47:52.640Z,8.16
2017-02-06T15:50:05.428Z,8.06
2017-02-06T15:52:17.931Z,7.95
2017-02-06T15:54:30.355Z,7.83
2017-02-06T15:56:42.536Z,7.71
2017-02-06T15:58:54.815Z,7.59
2017-02-06T16:01:07.244Z,7.44
2017-02-06T16:03:19.621Z,7.29
2017-02-06T16:05:31.929Z,7.13
2017-02-06T16:07:44.348Z,6.96
2017-02-06T16:09:56.737Z,6.76
2017-02-06T16:12:08.966Z,6.57
2017-02-06T16:14:21.215Z,6.4
2017-02-06T16:16:33.541Z,6.24
2017-02-06T16:18:46.009Z,6.09
2017-02-06T16:20:58.481Z,5.95
2017-02-06T16:23:05.751Z,5.84
2017-02-06T16:25:18.138Z,5.74
2017-02-06T16:27:30.457Z,5.63
2017-02-06T16:29:42.895Z,5.5
2017-02-06T16:31:55.952Z,5.38
2017-02-06T16:34:08.369Z,5.25
2017-02-06T16:36:21.275Z,5.13
2017-02-06T16:38:33.534Z,5.02
2017-02-06T16:40:45.962Z,4.92
2017-02-06T16:42:58.299Z,4.83
2017-02-06T16:45:10.478Z,4.75
2017-02-06T16:47:22.809Z,4.66
2017-02-06T16:49:35.273Z,4.6
2017-02-06T16:51:47.603Z,4.54
2017-02-06T16:53:59.994Z,4.47
2017-02-06T16:56:12.162Z,4.4
2017-02-06T16:58:25.606Z,4.31
2017-02-06T17:00:37.787Z,4.26
2017-02-06T17:02:50.837Z,4.18
2017-02-06T17:05:03.151Z,4.1
2017-02-06T17:07:15.524Z,4.03
2017-02-06T17:09:27.825Z,3.96
2017-02-06T17:11:40.297Z,3.9
2017-02-06T17:13:52.688Z,3.83
2017-02-06T17:16:05.189Z,3.76
2017-02-06T17:18:17.447Z,3.7
2017-02-06T17:20:29.781Z,3.62
2017-02-06T17:22:42.140Z,3.53
2017-02-06T17:24:54.462Z,3.42
2017-02-06T17:27:01.736Z,3.32
2017-02-06T17:29:14.050Z,3.23
2017-02-06T17:31:21.405Z,3.17
2017-02-06T17:33:33.612Z,3.12
2017-02-06T17:35:46.014Z,3.08
2017-02-06T17:37:58.242Z,3.03
2017-02-06T17:40:10.657Z,2.99
2017-02-06T17:42:23.122Z,2.93
2017-02-06T17:44:35.401Z,2.85
2017-02-06T17:46:47.751Z,2.79
2017-02-06T17:49:00.075Z,2.7
2017-02-06T17:51:12.288Z,2.62
2017-02-06T17:53:24.570Z,2.53
2017-02-06T17:55:36.876Z,2.46
2017-02-06T17:57:49.052Z,2.42
2017-02-06T18:00:01.398Z,2.4
2017-02-06T18:02:13.745Z,2.38
2017-02-06T18:04:26.064Z,2.38
2017-02-06T18:06:38.263Z,2.42
2017-02-06T18:08:50.400Z,2.5
2017-02-06T18:11:02.687Z,2.59
2017-02-06T18:13:15.048Z,2.7
2017-02-06T18:15:22.377Z,2.8
2017-02-06T18:17:34.586Z,2.88
2017-02-06T18:19:46.817Z,2.92
2017-02-06T18:21:59.168Z,2.93
2017-02-06T18:24:11.683Z,2.91
2017-02-06T18:26:23.944Z,2.89
2017-02-06T18:28:36.099Z,2.87
2017-02-06T18:30:48.387Z,2.85
2017-02-06T18:33:00.730Z,2.88
2017-02-06T18:35:13.112Z,2.96
2017-02-06T18:37:25.593Z,3.08
2017-02-06T18:39:38.231Z,3.21
2017-02-06T18:41:50.603Z,3.35
2017-02-06T18:44:05.238Z,3.53
2017-02-06T18:46:17.556Z,3.68
2017-02-06T18:48:29.845Z,3.81
2017-02-06T18:50:42.245Z,3.91
2017-02-06T18:52:54.499Z,3.99
2017-02-06T18:55:06.714Z,4.06
2017-02-06T18:57:19.029Z,4.12
2017-02-06T18:59:31.407Z,4.18
2017-02-06T19:01:43.672Z,4.25
2017-02-06T19:03:56.180Z,4.29
2017-02-06T19:06:08.623Z,4.33
2017-02-06T19:08:20.921Z,4.36
2017-02-06T19:10:33.275Z,4.41
2017-02-06T19:12:45.541Z,4.44
2017-02-06T19:14:57.765Z,4.46
2017-02-06T19:17:10.243Z,4.49
2017-02-06T19:19:22.487Z,4.48
2017-02-06T19:21:35.187Z,4.5
2017-02-06T19:23:47.688Z,4.5
2017-02-06T19:26:01.206Z,4.5
2017-02-06T19:28:14.062Z,4.49
2017-02-06T19:30:26.376Z,4.5
2017-02-06T19:32:38.826Z,4.51
2017-02-06T19:34:51.164Z,4.53
2017-02-06T19:37:03.607Z,4.54
2017-02-06T19:39:16.142Z,4.54
2017-02-06T19:41:28.489Z,4.52
2017-02-06T19:43:41.053Z,4.47
2017-02-06T19:45:53.503Z,4.42
2017-02-06T19:48:05.913Z,4.33
2017-02-06T19:50:18.881Z,4.24
2017-02-06T19:52:32.013Z,4.14
2017-02-06T19:54:44.546Z,4.04
2017-02-06T19:56:57.147Z,3.96
2017-02-06T19:59:09.703Z,3.92
2017-02-06T20:01:17.222Z,3.91
2017-02-06T20:03:29.549Z,3.96
2017-02-06T20:05:41.948Z,4.03
2017-02-06T20:07:54.171Z,4.11
2017-02-06T20:10:06.555Z,4.19
2017-02-06T20:12:18.894Z,4.27
2017-02-06T20:14:31.342Z,4.35
2017-02-06T20:16:43.915Z,4.41
2017-02-06T20:18:56.335Z,4.46
2017-02-06T20:21:08.811Z,4.5
2017-02-06T20:23:21.219Z,4.53
2017-02-06T20:25:33.577Z,4.57
2017-02-06T20:27:46.252Z,4.61
2017-02-06T20:29:58.906Z,4.64
2017-02-06T20:32:12.177Z,4.65
2017-02-06T20:34:25.015Z,4.67
2017-02-06T20:36:37.749Z,4.69
2017-02-06T20:38:50.308Z,4.7
2017-02-06T20:41:03.022Z,4.7
2017-02-06T20:43:15.586Z,4.7
2017-02-06T20:45:29.469Z,4.7
2017-02-06T20:47:37.013Z,4.7
2017-02-06T20:49:49.485Z,4.69
2017-02-06T20:52:02.160Z,4.7
2017-02-06T20:54:14.561Z,4.7
2017-02-06T20:56:26.802Z,4.69
2017-02-06T20:58:39.330Z,4.66
2017-02-06T21:00:51.629Z,4.64
2017-02-06T21:03:04.104Z,4.63
2017-02-06T21:05:21.786Z,4.63
2017-02-06T21:07:37.237Z,4.63
2017-02-06T21:09:51.717Z,4.62
2017-02-06T21:12:04.370Z,4.62
2017-02-06T21:14:16.897Z,4.61
2017-02-06T21:16:29.142Z,4.61
2017-02-06T21:18:41.485Z,4.61
2017-02-06T21:20:53.710Z,4.61
2017-02-06T21:23:06.065Z,4.63
2017-02-06T21:25:13.338Z,4.64
2017-02-06T21:27:26.018Z,4.65
2017-02-06T21:29:38.216Z,4.67
2017-02-06T21:31:50.408Z,4.69
2017-02-06T21:33:57.877Z,4.72
2017-02-06T21:36:10.181Z,4.74
2017-02-06T21:38:17.470Z,4.75
2017-02-06T21:40:15.148Z,4.77
2017-02-06T21:42:27.778Z,4.79
2017-02-06T21:44:42.082Z,4.8
2017-02-06T21:46:56.465Z,4.82
2017-02-06T21:49:09.420Z,4.83
2017-02-06T21:51:17.154Z,4.84
2017-02-06T21:53:31.904Z,4.85
2017-02-06T21:55:44.390Z,4.85
2017-02-06T21:57:51.614Z,4.86
2017-02-06T22:00:03.888Z,4.87
2017-02-06T22:02:16.414Z,4.89
2017-02-06T22:04:28.816Z,4.9
2017-02-06T22:06:41.057Z,4.91
2017-02-06T22:08:53.387Z,4.92
2017-02-06T22:11:05.815Z,4.93
2017-02-06T22:13:18.120Z,4.95
2017-02-06T22:15:28.786Z,4.95
2017-02-06T22:17:41.025Z,4.96
2017-02-06T22:19:53.389Z,4.95
2017-02-06T22:22:05.586Z,4.95
2017-02-06T22:24:17.912Z,4.93
2017-02-06T22:26:30.087Z,4.93
2017-02-06T22:28:42.218Z,4.93
2017-02-06T22:30:54.508Z,4.94
2017-02-06T22:33:06.772Z,4.95
2017-02-06T22:35:19.028Z,4.96
2017-02-06T22:37:26.319Z,4.98
2017-02-06T22:39:38.598Z,5.01
2017-02-06T22:41:50.931Z,5.02
2017-02-06T22:44:03.187Z,5.02
2017-02-06T22:46:15.461Z,5.01
2017-02-06T22:48:27.938Z,5
2017-02-06T22:50:40.307Z,4.99
2017-02-06T22:52:52.756Z,4.99
2017-02-06T22:55:05.165Z,4.99
2017-02-06T22:57:17.317Z,5.02
2017-02-06T22:59:29.857Z,5.01
2017-02-06T23:01:42.582Z,5.03
2017-02-06T23:03:50.068Z,5.04
2017-02-06T23:06:02.301Z,5.06
2017-02-06T23:08:14.466Z,5.07
2017-02-06T23:10:26.713Z,5.07
2017-02-06T23:12:38.892Z,5.08
2017-02-06T23:14:51.034Z,5.09
2017-02-06T23:17:03.291Z,5.09
2017-02-06T23:19:15.575Z,5.1
2017-02-06T23:21:27.776Z,5.11
2017-02-06T23:23:40.029Z,5.11
2017-02-06T23:25:52.163Z,5.09
2017-02-06T23:28:05.062Z,5.08
2017-02-06T23:30:17.523Z,5.07
2017-02-06T23:32:29.747Z,5.06
2017-02-06T23:34:37.095Z,5.06
2017-02-06T23:36:49.242Z,5.06
2017-02-06T23:39:01.718Z,5.06
2017-02-06T23:41:13.957Z,5.06
2017-02-06T23:43:26.087Z,5.06
2017-02-06T23:45:38.284Z,5.07
2017-02-06T23:47:50.589Z,5.08
2017-02-06T23:50:02.835Z,5.09
2017-02-06T23:52:15.031Z,5.11
2017-02-06T23:54:27.299Z,5.13
2017-02-06T23:56:40.152Z,5.13
2017-02-06T23:58:57.420Z,5.14
